sensor_id;sensor_type;location;lat;lon;timestamp;pressure;altitude;pressure_sealevel;temperature;humidity
5755;BME280;2902;42.130;24.732;2023-04-19T00:01:30;99050.47;;;11.59;100.00
5755;BME280;2902;42.130;24.732;2023-04-19T00:03:58;99051.94;;;11.61;100.00
5755;BME280;2902;42.130;24.732;2023-04-19T00:06:25;99051.28;;;11.59;100.00
5755;BME280;2902;42.130;24.732;2023-04-19T00:08:55;99045.56;;;11.62;100.00
5755;BME280;2902;42.130;24.732;2023-04-19T00:11:21;99045.16;;;11.65;100.00
5755;BME280;2902;42.130;24.732;2023-04-19T00:13:48;99042.25;;;11.73;100.00
5755;BME280;2902;42.130;24.732;2023-04-19T00:16:15;99043.06;;;11.67;100.00
5755;BME280;2902;42.130;24.732;2023-04-19T00:18:41;99029.19;;;11.65;100.00
5755;BME280;2902;42.130;24.732;2023-04-19T00:21:09;99028.16;;;11.66;100.00
5755;BME280;2902;42.130;24.732;2023-04-19T00:23:36;99024.88;;;11.64;100.00
5755;BME280;2902;42.130;24.732;2023-04-19T00:26:03;99012.66;;;11.50;100.00
5755;BME280;2902;42.130;24.732;2023-04-19T00:28:30;99018.16;;;11.62;100.00
5755;BME280;2902;42.130;24.732;2023-04-19T00:30:56;99016.91;;;11.64;100.00
5755;BME280;2902;42.130;24.732;2023-04-19T00:33:23;99018.75;;;11.64;100.00
5755;BME280;2902;42.130;24.732;2023-04-19T00:35:50;99010.78;;;11.64;100.00
5755;BME280;2902;42.130;24.732;2023-04-19T00:38:18;99013.59;;;11.69;100.00
5755;BME280;2902;42.130;24.732;2023-04-19T00:40:44;99012.78;;;11.68;100.00
5755;BME280;2902;42.130;24.732;2023-04-19T00:43:16;99011.97;;;11.68;100.00
5755;BME280;2902;42.130;24.732;2023-04-19T00:45:43;99014.44;;;11.69;100.00
5755;BME280;2902;42.130;24.732;2023-04-19T00:48:10;99014.66;;;11.68;100.00
5755;BME280;2902;42.130;24.732;2023-04-19T00:50:37;99015.44;;;11.68;100.00
5755;BME280;2902;42.130;24.732;2023-04-19T00:53:04;99016.91;;;11.64;100.00
5755;BME280;2902;42.130;24.732;2023-04-19T00:55:32;99013.66;;;11.62;100.00
5755;BME280;2902;42.130;24.732;2023-04-19T00:57:59;99012.03;;;11.61;100.00
5755;BME280;2902;42.130;24.732;2023-04-19T01:00:26;99012.81;;;11.62;100.00
5755;BME280;2902;42.130;24.732;2023-04-19T01:02:52;99006.72;;;11.61;100.00
5755;BME280;2902;42.130;24.732;2023-04-19T01:05:19;99009.13;;;11.56;100.00
5755;BME280;2902;42.130;24.732;2023-04-19T01:07:46;99014.03;;;11.59;100.00
5755;BME280;2902;42.130;24.732;2023-04-19T01:10:13;99004.22;;;11.66;100.00
5755;BME280;2902;42.130;24.732;2023-04-19T01:12:41;98996.47;;;11.58;100.00
5755;BME280;2902;42.130;24.732;2023-04-19T01:15:09;98999.47;;;11.68;100.00
5755;BME280;2902;42.130;24.732;2023-04-19T01:17:36;99000.00;;;11.83;100.00
5755;BME280;2902;42.130;24.732;2023-04-19T01:20:04;98997.75;;;11.80;100.00
5755;BME280;2902;42.130;24.732;2023-04-19T01:22:33;98994.50;;;11.78;100.00
5755;BME280;2902;42.130;24.732;2023-04-19T01:25:02;98992.44;;;11.80;100.00
5755;BME280;2902;42.130;24.732;2023-04-19T01:27:29;98984.41;;;11.87;100.00
5755;BME280;2902;42.130;24.732;2023-04-19T01:29:56;98982.41;;;11.82;100.00
5755;BME280;2902;42.130;24.732;2023-04-19T01:32:23;98983.66;;;11.80;100.00
5755;BME280;2902;42.130;24.732;2023-04-19T01:34:51;98980.78;;;11.81;100.00
5755;BME280;2902;42.130;24.732;2023-04-19T01:37:18;98982.41;;;11.82;100.00
5755;BME280;2902;42.130;24.732;2023-04-19T01:39:46;98983.19;;;11.89;100.00
5755;BME280;2902;42.130;24.732;2023-04-19T01:42:13;98976.81;;;11.90;100.00
5755;BME280;2902;42.130;24.732;2023-04-19T01:44:39;98971.22;;;11.98;100.00
5755;BME280;2902;42.130;24.732;2023-04-19T01:47:06;98960.03;;;11.90;100.00
5755;BME280;2902;42.130;24.732;2023-04-19T01:49:33;98977.13;;;12.00;100.00
5755;BME280;2902;42.130;24.732;2023-04-19T01:51:59;98972.84;;;11.99;100.00
5755;BME280;2902;42.130;24.732;2023-04-19T01:54:26;98968.28;;;12.06;100.00
5755;BME280;2902;42.130;24.732;2023-04-19T01:56:54;98973.16;;;12.09;100.00
5755;BME280;2902;42.130;24.732;2023-04-19T01:59:21;98965.63;;;12.06;100.00
5755;BME280;2902;42.130;24.732;2023-04-19T02:01:48;98967.53;;;11.99;100.00
5755;BME280;2902;42.130;24.732;2023-04-19T02:04:14;98961.91;;;11.89;100.00
5755;BME280;2902;42.130;24.732;2023-04-19T02:06:41;98957.97;;;11.92;100.00
5755;BME280;2902;42.130;24.732;2023-04-19T02:09:08;98963.50;;;11.90;100.00
5755;BME280;2902;42.130;24.732;2023-04-19T02:11:35;98965.34;;;11.90;100.00
5755;BME280;2902;42.130;24.732;2023-04-19T02:14:03;98948.84;;;11.81;100.00
5755;BME280;2902;42.130;24.732;2023-04-19T02:16:30;98959.25;;;11.83;100.00
5755;BME280;2902;42.130;24.732;2023-04-19T02:18:57;98963.78;;;11.82;100.00
5755;BME280;2902;42.130;24.732;2023-04-19T02:21:24;98955.38;;;11.85;100.00
5755;BME280;2902;42.130;24.732;2023-04-19T02:23:51;98952.09;;;11.83;100.00
5755;BME280;2902;42.130;24.732;2023-04-19T02:26:18;98949.28;;;11.78;100.00
5755;BME280;2902;42.130;24.732;2023-04-19T02:28:46;98946.00;;;11.76;100.00
5755;BME280;2902;42.130;24.732;2023-04-19T02:31:14;98947.81;;;11.82;100.00
5755;BME280;2902;42.130;24.732;2023-04-19T02:33:40;98939.84;;;11.82;100.00
5755;BME280;2902;42.130;24.732;2023-04-19T02:36:08;98950.47;;;11.82;100.00
5755;BME280;2902;42.130;24.732;2023-04-19T02:38:34;98949.44;;;11.83;100.00
5755;BME280;2902;42.130;24.732;2023-04-19T02:41:01;98945.31;;;11.87;100.00
5755;BME280;2902;42.130;24.732;2023-04-19T02:43:28;98941.81;;;11.93;100.00
5755;BME280;2902;42.130;24.732;2023-04-19T02:45:55;98936.63;;;11.98;100.00
5755;BME280;2902;42.130;24.732;2023-04-19T02:48:23;98935.16;;;12.02;100.00
5755;BME280;2902;42.130;24.732;2023-04-19T02:50:51;98938.81;;;12.08;100.00
5755;BME280;2902;42.130;24.732;2023-04-19T02:53:17;98938.56;;;12.09;100.00
5755;BME280;2902;42.130;24.732;2023-04-19T02:55:44;98933.91;;;12.05;100.00
5755;BME280;2902;42.130;24.732;2023-04-19T02:58:11;98940.31;;;11.97;100.00
5755;BME280;2902;42.130;24.732;2023-04-19T03:00:37;98944.38;;;11.75;100.00
5755;BME280;2902;42.130;24.732;2023-04-19T03:03:04;98945.28;;;11.69;100.00
5755;BME280;2902;42.130;24.732;2023-04-19T03:05:33;98951.53;;;11.75;100.00
5755;BME280;2902;42.130;24.732;2023-04-19T03:07:59;98939.16;;;11.62;100.00
5755;BME280;2902;42.130;24.732;2023-04-19T03:10:26;98951.44;;;11.57;100.00
5755;BME280;2902;42.130;24.732;2023-04-19T03:12:53;98949.81;;;11.56;100.00
5755;BME280;2902;42.130;24.732;2023-04-19T03:15:20;98940.00;;;11.56;100.00
5755;BME280;2902;42.130;24.732;2023-04-19T03:17:47;98944.94;;;11.53;100.00
5755;BME280;2902;42.130;24.732;2023-04-19T03:20:14;98948.59;;;11.58;100.00
5755;BME280;2902;42.130;24.732;2023-04-19T03:22:42;98939.06;;;11.44;100.00
5755;BME280;2902;42.130;24.732;2023-04-19T03:25:09;98941.53;;;11.39;100.00
5755;BME280;2902;42.130;24.732;2023-04-19T03:27:38;98944.59;;;11.43;100.00
5755;BME280;2902;42.130;24.732;2023-04-19T03:30:05;98943.91;;;11.54;100.00
5755;BME280;2902;42.130;24.732;2023-04-19T03:32:32;98944.88;;;11.59;100.00
5755;BME280;2902;42.130;24.732;2023-04-19T03:34:59;98943.25;;;11.58;100.00
5755;BME280;2902;42.130;24.732;2023-04-19T03:37:26;98950.63;;;11.56;100.00
5755;BME280;2902;42.130;24.732;2023-04-19T03:39:54;98947.81;;;11.51;100.00
5755;BME280;2902;42.130;24.732;2023-04-19T03:42:20;98943.34;;;11.45;100.00
5755;BME280;2902;42.130;24.732;2023-04-19T03:44:47;98946.44;;;11.42;100.00
5755;BME280;2902;42.130;24.732;2023-04-19T03:47:14;98944.97;;;11.46;100.00
5755;BME280;2902;42.130;24.732;2023-04-19T03:49:40;98938.28;;;11.37;100.00
5755;BME280;2902;42.130;24.732;2023-04-19T03:52:07;98933.56;;;11.39;100.00
5755;BME280;2902;42.130;24.732;2023-04-19T03:54:34;98941.75;;;11.38;100.00
5755;BME280;2902;42.130;24.732;2023-04-19T03:57:02;98938.28;;;11.37;100.00
5755;BME280;2902;42.130;24.732;2023-04-19T03:59:30;98948.72;;;11.39;100.00
5755;BME280;2902;42.130;24.732;2023-04-19T04:01:56;98949.97;;;11.36;100.00
5755;BME280;2902;42.130;24.732;2023-04-19T04:04:23;98946.44;;;11.42;100.00
5755;BME280;2902;42.130;24.732;2023-04-19T04:06:50;98949.47;;;11.46;100.00
5755;BME280;2902;42.130;24.732;2023-04-19T04:09:17;98947.06;;;11.44;100.00
5755;BME280;2902;42.130;24.732;2023-04-19T04:11:43;98937.63;;;11.48;100.00
5755;BME280;2902;42.130;24.732;2023-04-19T04:14:11;98948.41;;;11.53;100.00
5755;BME280;2902;42.130;24.732;2023-04-19T04:16:38;98943.94;;;11.47;100.00
5755;BME280;2902;42.130;24.732;2023-04-19T04:19:05;98947.38;;;11.54;100.00
5755;BME280;2902;42.130;24.732;2023-04-19T04:21:32;98943.09;;;11.53;100.00
5755;BME280;2902;42.130;24.732;2023-04-19T04:23:58;98945.91;;;11.65;100.00
5755;BME280;2902;42.130;24.732;2023-04-19T04:26:26;98947.97;;;11.63;100.00
5755;BME280;2902;42.130;24.732;2023-04-19T04:28:55;98951.78;;;11.73;100.00
5755;BME280;2902;42.130;24.732;2023-04-19T04:31:23;98945.38;;;11.81;100.00
5755;BME280;2902;42.130;24.732;2023-04-19T04:33:50;98946.28;;;11.93;100.00
5755;BME280;2902;42.130;24.732;2023-04-19T04:36:18;98942.81;;;11.92;100.00
5755;BME280;2902;42.130;24.732;2023-04-19T04:38:44;98943.84;;;12.16;100.00
5755;BME280;2902;42.130;24.732;2023-04-19T04:41:11;98955.03;;;12.42;100.00
5755;BME280;2902;42.130;24.732;2023-04-19T04:43:38;98954.28;;;12.53;100.00
5755;BME280;2902;42.130;24.732;2023-04-19T04:46:05;98962.59;;;12.63;100.00
5755;BME280;2902;42.130;24.732;2023-04-19T04:48:33;98951.94;;;12.81;100.00
5755;BME280;2902;42.130;24.732;2023-04-19T04:51:00;98956.06;;;12.95;100.00
5755;BME280;2902;42.130;24.732;2023-04-19T04:53:26;98953.56;;;12.82;100.00
5755;BME280;2902;42.130;24.732;2023-04-19T04:55:53;98956.81;;;12.84;99.65
5755;BME280;2902;42.130;24.732;2023-04-19T04:58:20;98960.59;;;12.77;99.42
5755;BME280;2902;42.130;24.732;2023-04-19T05:00:47;98959.78;;;12.76;99.33
5755;BME280;2902;42.130;24.732;2023-04-19T05:03:16;98966.59;;;12.72;98.88
5755;BME280;2902;42.130;24.732;2023-04-19T05:05:45;98941.38;;;12.57;98.67
5755;BME280;2902;42.130;24.732;2023-04-19T05:08:12;98938.81;;;12.44;99.37
5755;BME280;2902;42.130;24.732;2023-04-19T05:10:39;98957.56;;;12.73;100.00
5755;BME280;2902;42.130;24.732;2023-04-19T05:13:06;98948.25;;;12.64;98.41
5755;BME280;2902;42.130;24.732;2023-04-19T05:15:32;98952.53;;;12.65;98.00
5755;BME280;2902;42.130;24.732;2023-04-19T05:17:59;98971.78;;;12.67;98.11
5755;BME280;2902;42.130;24.732;2023-04-19T05:20:26;98958.28;;;12.62;99.30
5755;BME280;2902;42.130;24.732;2023-04-19T05:22:57;98964.38;;;12.69;97.95
5755;BME280;2902;42.130;24.732;2023-04-19T05:25:24;98958.59;;;12.72;97.67
5755;BME280;2902;42.130;24.732;2023-04-19T05:27:51;98966.09;;;12.82;97.05
5755;BME280;2902;42.130;24.732;2023-04-19T05:30:18;98968.19;;;12.91;98.61
5755;BME280;2902;42.130;24.732;2023-04-19T05:32:45;98968.19;;;12.91;96.82
5755;BME280;2902;42.130;24.732;2023-04-19T05:35:12;98971.34;;;12.88;96.39
5755;BME280;2902;42.130;24.732;2023-04-19T05:37:39;98964.22;;;12.82;96.96
5755;BME280;2902;42.130;24.732;2023-04-19T05:40:08;98969.03;;;12.92;96.44
5755;BME280;2902;42.130;24.732;2023-04-19T05:42:35;98968.44;;;12.90;96.47
5755;BME280;2902;42.130;24.732;2023-04-19T05:45:02;98973.69;;;12.96;96.43
5755;BME280;2902;42.130;24.732;2023-04-19T05:47:29;98966.81;;;12.89;97.09
5755;BME280;2902;42.130;24.732;2023-04-19T05:49:56;98972.69;;;12.97;96.59
5755;BME280;2902;42.130;24.732;2023-04-19T05:52:22;98974.50;;;12.97;96.52
5755;BME280;2902;42.130;24.732;2023-04-19T05:54:49;98969.03;;;12.92;96.99
5755;BME280;2902;42.130;24.732;2023-04-19T05:57:17;98941.19;;;12.88;95.98
5755;BME280;2902;42.130;24.732;2023-04-19T05:59:44;98972.38;;;13.05;95.81
5755;BME280;2902;42.130;24.732;2023-04-19T06:02:11;98968.53;;;13.01;95.03
5755;BME280;2902;42.130;24.732;2023-04-19T06:04:37;98969.09;;;13.03;95.81
5755;BME280;2902;42.130;24.732;2023-04-19T06:07:04;98967.41;;;13.09;95.66
5755;BME280;2902;42.130;24.732;2023-04-19T06:09:31;98942.59;;;13.08;95.34
5755;BME280;2902;42.130;24.732;2023-04-19T06:11:57;98972.34;;;13.23;95.18
5755;BME280;2902;42.130;24.732;2023-04-19T06:14:26;98966.13;;;13.29;93.74
5755;BME280;2902;42.130;24.732;2023-04-19T06:16:53;98964.03;;;13.31;92.73
5755;BME280;2902;42.130;24.732;2023-04-19T06:19:20;98964.31;;;13.41;92.98
5755;BME280;2902;42.130;24.732;2023-04-19T06:21:47;98973.41;;;13.63;93.49
5755;BME280;2902;42.130;24.732;2023-04-19T06:24:14;98965.84;;;13.60;91.27
5755;BME280;2902;42.130;24.732;2023-04-19T06:26:40;98969.50;;;13.77;90.75
5755;BME280;2902;42.130;24.732;2023-04-19T06:29:07;98970.47;;;13.94;91.08
5755;BME280;2902;42.130;24.732;2023-04-19T06:31:36;98968.75;;;14.11;89.62
5755;BME280;2902;42.130;24.732;2023-04-19T06:34:02;98966.00;;;14.29;89.00
5755;BME280;2902;42.130;24.732;2023-04-19T06:36:29;98967.06;;;14.51;91.46
5755;BME280;2902;42.130;24.732;2023-04-19T06:38:56;98972.56;;;14.84;89.21
5755;BME280;2902;42.130;24.732;2023-04-19T06:41:22;98983.66;;;15.04;84.07
5755;BME280;2902;42.130;24.732;2023-04-19T06:43:49;98979.69;;;15.18;83.77
5755;BME280;2902;42.130;24.732;2023-04-19T06:46:16;98987.56;;;15.36;83.00
5755;BME280;2902;42.130;24.732;2023-04-19T06:48:44;98987.09;;;15.39;82.66
5755;BME280;2902;42.130;24.732;2023-04-19T06:51:11;98999.88;;;15.65;81.19
5755;BME280;2902;42.130;24.732;2023-04-19T06:53:37;98989.88;;;16.06;82.15
5755;BME280;2902;42.130;24.732;2023-04-19T06:56:05;99003.94;;;16.84;79.98
5755;BME280;2902;42.130;24.732;2023-04-19T06:58:32;99011.50;;;17.30;77.82
5755;BME280;2902;42.130;24.732;2023-04-19T07:00:59;99009.41;;;17.32;77.68
5755;BME280;2902;42.130;24.732;2023-04-19T07:03:26;99015.44;;;17.65;76.86
5755;BME280;2902;42.130;24.732;2023-04-19T07:05:54;99013.28;;;17.41;74.47
5755;BME280;2902;42.130;24.732;2023-04-19T07:08:22;99016.75;;;17.63;75.50
5755;BME280;2902;42.130;24.732;2023-04-19T07:10:49;99016.19;;;17.87;73.13
5755;BME280;2902;42.130;24.732;2023-04-19T07:13:15;99016.44;;;17.86;73.23
5755;BME280;2902;42.130;24.732;2023-04-19T07:15:42;99020.00;;;17.91;72.15
5755;BME280;2902;42.130;24.732;2023-04-19T07:18:09;99014.22;;;18.04;71.21
5755;BME280;2902;42.130;24.732;2023-04-19T07:20:35;99021.69;;;18.29;70.93
5755;BME280;2902;42.130;24.732;2023-04-19T07:23:03;99016.91;;;18.36;69.82
5755;BME280;2902;42.130;24.732;2023-04-19T07:25:30;99017.09;;;18.29;69.36
5755;BME280;2902;42.130;24.732;2023-04-19T07:27:57;99021.31;;;18.15;69.41
5755;BME280;2902;42.130;24.732;2023-04-19T07:30:23;99023.31;;;18.30;69.62
5755;BME280;2902;42.130;24.732;2023-04-19T07:32:50;99019.69;;;18.46;69.01
5755;BME280;2902;42.130;24.732;2023-04-19T07:35:18;99017.78;;;18.15;68.33
5755;BME280;2902;42.130;24.732;2023-04-19T07:37:44;99021.16;;;18.32;69.64
5755;BME280;2902;42.130;24.732;2023-04-19T07:40:13;99031.88;;;18.27;68.64
5755;BME280;2902;42.130;24.732;2023-04-19T07:42:41;99023.31;;;18.30;70.11
5755;BME280;2902;42.130;24.732;2023-04-19T07:45:09;98997.25;;;18.04;68.82
5755;BME280;2902;42.130;24.732;2023-04-19T07:47:35;99023.50;;;17.92;70.87
5755;BME280;2902;42.130;24.732;2023-04-19T07:50:02;99025.34;;;17.86;71.39
5755;BME280;2902;42.130;24.732;2023-04-19T07:52:31;99030.84;;;18.01;70.65
5755;BME280;2902;42.130;24.732;2023-04-19T07:54:58;99033.53;;;18.01;69.82
5755;BME280;2902;42.130;24.732;2023-04-19T07:57:27;99031.56;;;17.92;69.40
5755;BME280;2902;42.130;24.732;2023-04-19T07:59:53;99025.97;;;18.25;70.13
5755;BME280;2902;42.130;24.732;2023-04-19T08:02:24;99034.25;;;18.50;70.02
5755;BME280;2902;42.130;24.732;2023-04-19T08:04:52;99048.19;;;18.42;67.18
5755;BME280;2902;42.130;24.732;2023-04-19T08:07:18;99036.31;;;18.38;67.30
5755;BME280;2902;42.130;24.732;2023-04-19T08:09:46;99038.44;;;18.36;67.33
5755;BME280;2902;42.130;24.732;2023-04-19T08:12:13;99044.13;;;18.39;67.21
5755;BME280;2902;42.130;24.732;2023-04-19T08:14:41;99037.91;;;18.39;67.26
5755;BME280;2902;42.130;24.732;2023-04-19T08:17:08;99037.13;;;17.85;68.66
5755;BME280;2902;42.130;24.732;2023-04-19T08:19:35;99032.25;;;18.09;68.90
5755;BME280;2902;42.130;24.732;2023-04-19T08:22:01;99027.66;;;18.36;68.48
5755;BME280;2902;42.130;24.732;2023-04-19T08:24:29;99028.06;;;18.49;68.98
5755;BME280;2902;42.130;24.732;2023-04-19T08:26:56;99030.03;;;18.32;67.34
5755;BME280;2902;42.130;24.732;2023-04-19T08:29:22;99033.16;;;18.19;67.47
5755;BME280;2902;42.130;24.732;2023-04-19T08:31:50;99028.81;;;17.87;68.06
5755;BME280;2902;42.130;24.732;2023-04-19T08:34:17;99028.06;;;17.91;67.29
5755;BME280;2902;42.130;24.732;2023-04-19T08:36:44;99030.25;;;17.94;67.26
5755;BME280;2902;42.130;24.732;2023-04-19T08:39:11;99033.88;;;18.10;66.76
5755;BME280;2902;42.130;24.732;2023-04-19T08:41:39;99030.44;;;18.14;67.10
5755;BME280;2902;42.130;24.732;2023-04-19T08:44:06;99034.03;;;18.25;65.83
5755;BME280;2902;42.130;24.732;2023-04-19T08:46:33;99026.00;;;18.30;66.03
5755;BME280;2902;42.130;24.732;2023-04-19T08:49:03;99031.66;;;18.65;63.12
5755;BME280;2902;42.130;24.732;2023-04-19T08:51:31;99034.41;;;18.70;63.37
5755;BME280;2902;42.130;24.732;2023-04-19T08:53:57;99016.59;;;18.69;63.81
5755;BME280;2902;42.130;24.732;2023-04-19T08:56:25;99027.44;;;18.74;64.41
5755;BME280;2902;42.130;24.732;2023-04-19T08:58:53;99013.53;;;18.97;64.89
5755;BME280;2902;42.130;24.732;2023-04-19T09:01:19;99020.91;;;19.16;61.64
5755;BME280;2902;42.130;24.732;2023-04-19T09:03:46;99031.50;;;19.28;60.39
5755;BME280;2902;42.130;24.732;2023-04-19T09:06:14;99021.09;;;19.00;60.34
5755;BME280;2902;42.130;24.732;2023-04-19T09:08:41;99013.50;;;19.43;62.70
5755;BME280;2902;42.130;24.732;2023-04-19T09:11:08;99014.44;;;19.94;60.92
5755;BME280;2902;42.130;24.732;2023-04-19T09:13:35;99026.59;;;20.51;59.01
5755;BME280;2902;42.130;24.732;2023-04-19T09:16:03;99026.56;;;21.02;58.55
5755;BME280;2902;42.130;24.732;2023-04-19T09:18:32;99033.06;;;20.76;56.49
5755;BME280;2902;42.130;24.732;2023-04-19T09:20:59;99022.56;;;20.59;57.27
5755;BME280;2902;42.130;24.732;2023-04-19T09:23:27;99034.69;;;20.72;56.62
5755;BME280;2902;42.130;24.732;2023-04-19T09:25:56;99023.63;;;20.68;58.44
5755;BME280;2902;42.130;24.732;2023-04-19T09:28:25;99032.25;;;20.65;57.08
5755;BME280;2902;42.130;24.732;2023-04-19T09:30:52;99035.00;;;20.35;56.66
5755;BME280;2902;42.130;24.732;2023-04-19T09:33:31;99017.19;;;20.34;58.70
5755;BME280;2902;42.130;24.732;2023-04-19T09:35:59;99013.41;;;20.55;58.39
5755;BME280;2902;42.130;24.732;2023-04-19T09:38:26;99020.41;;;20.61;56.78
5755;BME280;2902;42.130;24.732;2023-04-19T09:41:04;99016.88;;;20.55;58.05
5755;BME280;2902;42.130;24.732;2023-04-19T09:43:32;99006.91;;;20.71;59.48
5755;BME280;2902;42.130;24.732;2023-04-19T09:45:58;99014.44;;;20.74;58.71
5755;BME280;2902;42.130;24.732;2023-04-19T09:48:25;98998.78;;;20.91;61.54
5755;BME280;2902;42.130;24.732;2023-04-19T09:50:53;99006.88;;;20.96;57.57
5755;BME280;2902;42.130;24.732;2023-04-19T09:53:21;99013.28;;;21.20;55.98
5755;BME280;2902;42.130;24.732;2023-04-19T09:55:49;99004.03;;;21.31;56.35
5755;BME280;2902;42.130;24.732;2023-04-19T09:58:18;99010.47;;;21.45;56.00
5755;BME280;2902;42.130;24.732;2023-04-19T10:00:45;99010.88;;;21.72;54.42
5755;BME280;2902;42.130;24.732;2023-04-19T10:03:13;99007.78;;;22.27;53.81
5755;BME280;2902;42.130;24.732;2023-04-19T10:05:41;98999.44;;;22.19;53.25
5755;BME280;2902;42.130;24.732;2023-04-19T10:08:10;98998.44;;;22.43;53.36
5755;BME280;2902;42.130;24.732;2023-04-19T10:10:38;98999.13;;;22.25;52.95
5755;BME280;2902;42.130;24.732;2023-04-19T10:13:07;98990.78;;;22.55;52.53
5755;BME280;2902;42.130;24.732;2023-04-19T10:15:36;98987.34;;;22.73;52.98
5755;BME280;2902;42.130;24.732;2023-04-19T10:18:04;98982.13;;;22.82;52.73
5755;BME280;2902;42.130;24.732;2023-04-19T10:20:33;99000.66;;;23.17;48.80
5755;BME280;2902;42.130;24.732;2023-04-19T10:23:06;98984.06;;;23.23;47.63
5755;BME280;2902;42.130;24.732;2023-04-19T10:25:36;98967.56;;;23.43;47.64
5755;BME280;2902;42.130;24.732;2023-04-19T10:28:03;98965.03;;;23.28;47.44
5755;BME280;2902;42.130;24.732;2023-04-19T10:30:30;98955.25;;;22.85;51.06
5755;BME280;2902;42.130;24.732;2023-04-19T10:32:59;98961.06;;;22.97;48.31
5755;BME280;2902;42.130;24.732;2023-04-19T10:35:32;98953.50;;;22.94;48.13
5755;BME280;2902;42.130;24.732;2023-04-19T10:38:05;98946.06;;;23.28;50.20
5755;BME280;2902;42.130;24.732;2023-04-19T10:40:57;98968.38;;;23.62;45.80
5755;BME280;2902;42.130;24.732;2023-04-19T10:43:27;98957.25;;;23.64;46.04
5755;BME280;2902;42.130;24.732;2023-04-19T10:45:58;98951.44;;;23.89;47.68
5755;BME280;2902;42.130;24.732;2023-04-19T10:48:40;98965.97;;;24.30;42.24
5755;BME280;2902;42.130;24.732;2023-04-19T10:51:18;98959.53;;;24.26;40.86
5755;BME280;2902;42.130;24.732;2023-04-19T10:53:50;98954.50;;;24.19;41.23
5755;BME280;2902;42.130;24.732;2023-04-19T10:56:18;98951.81;;;24.01;40.67
5755;BME280;2902;42.130;24.732;2023-04-19T10:59:11;98955.53;;;23.86;41.43
5755;BME280;2902;42.130;24.732;2023-04-19T11:01:40;98943.31;;;23.70;41.66
5755;BME280;2902;42.130;24.732;2023-04-19T11:04:10;98948.06;;;23.41;43.53
5755;BME280;2902;42.130;24.732;2023-04-19T11:06:37;98940.16;;;23.03;44.18
5755;BME280;2902;42.130;24.732;2023-04-19T11:09:04;98941.94;;;22.65;44.19
5755;BME280;2902;42.130;24.732;2023-04-19T11:11:34;98944.06;;;22.40;45.81
5755;BME280;2902;42.130;24.732;2023-04-19T11:14:02;98935.06;;;22.21;46.17
5755;BME280;2902;42.130;24.732;2023-04-19T11:16:29;98937.59;;;22.07;46.54
5755;BME280;2902;42.130;24.732;2023-04-19T11:18:56;98940.16;;;21.94;45.51
5755;BME280;2902;42.130;24.732;2023-04-19T11:21:24;98931.31;;;21.83;46.59
5755;BME280;2902;42.130;24.732;2023-04-19T11:24:05;98931.53;;;21.87;46.89
5755;BME280;2902;42.130;24.732;2023-04-19T11:26:32;98925.91;;;21.83;46.46
5755;BME280;2902;42.130;24.732;2023-04-19T11:28:59;98930.09;;;21.99;46.59
5755;BME280;2902;42.130;24.732;2023-04-19T11:31:26;98915.63;;;22.14;46.15
5755;BME280;2902;42.130;24.732;2023-04-19T11:33:53;98920.38;;;22.27;46.04
5755;BME280;2902;42.130;24.732;2023-04-19T11:36:20;98926.81;;;22.31;44.46
5755;BME280;2902;42.130;24.732;2023-04-19T11:38:48;98923.16;;;22.45;43.87
5755;BME280;2902;42.130;24.732;2023-04-19T11:41:15;98926.91;;;22.78;43.37
5755;BME280;2902;42.130;24.732;2023-04-19T11:43:41;98930.09;;;23.03;42.80
5755;BME280;2902;42.130;24.732;2023-04-19T11:46:10;98930.00;;;23.13;42.18
5755;BME280;2902;42.130;24.732;2023-04-19T11:48:37;98937.38;;;23.08;42.54
5755;BME280;2902;42.130;24.732;2023-04-19T11:51:04;98936.19;;;23.14;43.17
5755;BME280;2902;42.130;24.732;2023-04-19T11:53:31;98927.94;;;22.82;44.03
5755;BME280;2902;42.130;24.732;2023-04-19T11:56:05;98927.69;;;22.55;44.76
5755;BME280;2902;42.130;24.732;2023-04-19T11:58:36;98927.06;;;22.34;45.80
5755;BME280;2902;42.130;24.732;2023-04-19T12:01:05;98931.03;;;22.13;46.40
5755;BME280;2902;42.130;24.732;2023-04-19T12:03:32;98918.06;;;21.82;46.75
5755;BME280;2902;42.130;24.732;2023-04-19T12:06:00;98920.00;;;21.76;47.75
5755;BME280;2902;42.130;24.732;2023-04-19T12:08:32;98931.97;;;21.65;47.42
5755;BME280;2902;42.130;24.732;2023-04-19T12:10:59;98917.50;;;21.41;48.05
5755;BME280;2902;42.130;24.732;2023-04-19T12:13:29;98921.34;;;21.30;50.40
5755;BME280;2902;42.130;24.732;2023-04-19T12:15:56;98919.03;;;21.14;52.62
5755;BME280;2902;42.130;24.732;2023-04-19T12:18:23;98919.41;;;20.92;53.65
5755;BME280;2902;42.130;24.732;2023-04-19T12:20:51;98936.16;;;20.79;54.64
5755;BME280;2902;42.130;24.732;2023-04-19T12:23:19;98926.56;;;19.73;59.86
5755;BME280;2902;42.130;24.732;2023-04-19T12:25:47;98916.13;;;19.05;63.36
5755;BME280;2902;42.130;24.732;2023-04-19T12:28:15;98914.22;;;18.39;67.16
5755;BME280;2902;42.130;24.732;2023-04-19T12:30:43;98904.34;;;18.13;69.92
5755;BME280;2902;42.130;24.732;2023-04-19T12:33:10;98895.81;;;18.21;70.51
5755;BME280;2902;42.130;24.732;2023-04-19T12:35:36;98896.91;;;18.25;71.34
5755;BME280;2902;42.130;24.732;2023-04-19T12:38:04;98886.88;;;17.79;72.33
5755;BME280;2902;42.130;24.732;2023-04-19T12:40:31;98892.78;;;17.76;71.05
5755;BME280;2902;42.130;24.732;2023-04-19T12:42:58;98870.19;;;17.72;72.25
5755;BME280;2902;42.130;24.732;2023-04-19T12:45:24;98869.91;;;17.73;72.68
5755;BME280;2902;42.130;24.732;2023-04-19T12:47:52;98880.78;;;17.57;74.09
5755;BME280;2902;42.130;24.732;2023-04-19T12:50:19;98896.22;;;17.71;70.52
5755;BME280;2902;42.130;24.732;2023-04-19T12:52:46;98898.19;;;17.81;69.54
5755;BME280;2902;42.130;24.732;2023-04-19T12:55:13;98896.13;;;17.93;67.92
5755;BME280;2902;42.130;24.732;2023-04-19T12:57:39;98909.28;;;18.26;68.31
5755;BME280;2902;42.130;24.732;2023-04-19T13:00:08;98908.69;;;18.60;68.44
5755;BME280;2902;42.130;24.732;2023-04-19T13:02:36;98914.44;;;18.79;66.13
5755;BME280;2902;42.130;24.732;2023-04-19T13:05:05;98914.44;;;18.84;63.57
5755;BME280;2902;42.130;24.732;2023-04-19T13:07:32;98918.56;;;19.01;64.55
5755;BME280;2902;42.130;24.732;2023-04-19T13:09:59;98918.88;;;19.20;65.36